createdAt,value
2023-02-25T00:00:32.985Z,6.10
2023-02-25T00:02:59.972Z,6.00
2023-02-25T00:05:26.672Z,5.43
2023-02-25T00:07:53.490Z,7.07
2023-02-25T00:10:20.057Z,6.77
2023-02-25T00:12:46.680Z,6.37
2023-02-25T00:15:13.763Z,5.80
2023-02-25T00:17:40.452Z,6.27
2023-02-25T00:20:09.666Z,6.43
2023-02-25T00:22:36.611Z,7.07
2023-02-25T00:25:03.246Z,5.23
2023-02-25T00:27:29.811Z,6.20
2023-02-25T00:29:56.479Z,6.30
2023-02-25T00:32:24.370Z,5.63
2023-02-25T00:34:51.997Z,6.13
2023-02-25T00:37:18.583Z,7.10
2023-02-25T00:39:45.387Z,4.00
2023-02-25T00:42:14.140Z,5.00
2023-02-25T00:44:45.688Z,9.13
2023-02-25T00:47:12.514Z,6.60
2023-02-25T00:49:39.050Z,5.50
2023-02-25T00:52:06.473Z,6.67
2023-02-25T00:54:33.626Z,5.00
2023-02-25T00:57:00.618Z,6.60
2023-02-25T00:59:27.416Z,5.40
2023-02-25T01:01:53.979Z,6.10
2023-02-25T01:04:21.097Z,8.07
2023-02-25T01:06:47.846Z,6.43
2023-02-25T01:09:14.480Z,6.03
2023-02-25T01:11:43.298Z,4.53
2023-02-25T01:14:15.244Z,5.10
2023-02-25T01:16:42.025Z,5.33
2023-02-25T01:19:11.807Z,5.10
2023-02-25T01:21:39.999Z,6.40
2023-02-25T01:24:08.107Z,6.00
2023-02-25T01:26:38.149Z,8.63
2023-02-25T01:29:12.512Z,5.70
2023-02-25T01:31:39.412Z,6.40
2023-02-25T01:34:08.961Z,6.07
2023-02-25T01:36:35.525Z,6.70
2023-02-25T01:39:03.506Z,6.63
2023-02-25T01:41:30.625Z,5.22
2023-02-25T01:44:16.996Z,5.53
2023-02-25T01:46:45.900Z,5.67
2023-02-25T01:49:16.626Z,7.60
2023-02-25T01:51:44.671Z,5.20
2023-02-25T01:54:11.749Z,3.90
2023-02-25T01:56:40.792Z,5.23
2023-02-25T01:59:07.393Z,6.78
2023-02-25T02:01:35.441Z,4.90
2023-02-25T02:04:04.763Z,8.13
2023-02-25T02:06:34.305Z,5.30
2023-02-25T02:09:01.473Z,4.63
2023-02-25T02:11:28.216Z,4.87
2023-02-25T02:13:56.547Z,4.07
2023-02-25T02:16:35.418Z,4.40
2023-02-25T02:19:14.658Z,5.20
2023-02-25T02:21:41.313Z,5.10
2023-02-25T02:24:14.392Z,4.13
2023-02-25T02:26:46.425Z,4.00
2023-02-25T02:29:33.243Z,4.27
2023-02-25T02:32:13.552Z,3.70
2023-02-25T02:34:51.147Z,4.00
2023-02-25T02:37:23.537Z,3.73
2023-02-25T02:40:16.324Z,4.50
2023-02-25T02:43:02.172Z,2.93
2023-02-25T02:45:34.764Z,3.93
2023-02-25T02:48:25.466Z,2.23
2023-02-25T02:50:54.944Z,4.20
2023-02-25T02:53:25.171Z,4.07
2023-02-25T02:55:53.670Z,4.50
2023-02-25T02:58:22.242Z,4.20
2023-02-25T03:00:50.806Z,3.63
2023-02-25T03:03:20.520Z,3.80
2023-02-25T03:05:49.514Z,3.67
2023-02-25T03:08:22.252Z,2.63
2023-02-25T03:10:48.753Z,3.07
2023-02-25T03:13:15.637Z,3.90
2023-02-25T03:15:42.918Z,3.23
2023-02-25T03:18:18.118Z,2.80
2023-02-25T03:20:46.977Z,2.80
2023-02-25T03:23:15.650Z,3.13
2023-02-25T03:25:47.893Z,4.60
2023-02-25T03:28:23.635Z,8.23
2023-02-25T03:30:58.339Z,4.07
2023-02-25T03:33:25.788Z,3.10
2023-02-25T03:35:54.550Z,3.30
2023-02-25T03:38:22.737Z,3.30
2023-02-25T03:40:50.956Z,3.47
2023-02-25T03:43:44.202Z,3.57
2023-02-25T03:46:12.194Z,4.40
2023-02-25T03:48:39.341Z,2.60
2023-02-25T03:51:09.625Z,4.00
2023-02-25T03:53:39.154Z,3.07
2023-02-25T03:56:11.322Z,5.30
2023-02-25T03:58:42.474Z,3.60
2023-02-25T04:01:17.632Z,3.63
2023-02-25T04:03:44.473Z,4.07
2023-02-25T04:06:12.348Z,4.17
2023-02-25T04:08:39.139Z,3.23
2023-02-25T04:11:06.382Z,2.93
2023-02-25T04:13:33.076Z,3.57
2023-02-25T04:15:59.680Z,4.50
2023-02-25T04:18:26.604Z,5.13
2023-02-25T04:20:53.457Z,3.57
2023-02-25T04:23:20.217Z,3.50
2023-02-25T04:25:46.688Z,4.30
2023-02-25T04:28:13.232Z,3.13
2023-02-25T04:30:39.893Z,2.80
2023-02-25T04:33:06.911Z,4.63
2023-02-25T04:35:33.538Z,4.00
2023-02-25T04:38:00.224Z,5.63
2023-02-25T04:40:26.903Z,5.80
2023-02-25T04:42:53.412Z,3.43
2023-02-25T04:45:26.863Z,5.60
2023-02-25T04:47:54.096Z,6.40
2023-02-25T04:50:21.189Z,4.30
2023-02-25T04:52:47.844Z,4.87
2023-02-25T04:55:14.553Z,3.27
2023-02-25T04:57:42.441Z,4.13
2023-02-25T05:00:12.020Z,5.03
2023-02-25T05:02:38.912Z,5.20
2023-02-25T05:05:05.583Z,4.17
2023-02-25T05:07:32.113Z,3.50
2023-02-25T05:09:58.601Z,4.03
2023-02-25T05:12:25.100Z,5.87
2023-02-25T05:14:51.631Z,4.50
2023-02-25T05:17:19.151Z,3.63
2023-02-25T05:19:45.651Z,4.10
2023-02-25T05:22:12.168Z,4.47
2023-02-25T05:24:39.118Z,4.20
2023-02-25T05:27:06.344Z,4.40
2023-02-25T05:29:32.922Z,4.00
2023-02-25T05:31:59.720Z,3.83
2023-02-25T05:34:26.276Z,3.87
2023-02-25T05:36:52.814Z,4.00
2023-02-25T05:39:19.427Z,4.63
2023-02-25T05:41:46.007Z,5.70
2023-02-25T05:44:12.572Z,4.57
2023-02-25T05:46:39.141Z,3.50
2023-02-25T05:49:05.886Z,5.37
2023-02-25T05:51:32.464Z,3.50
2023-02-25T05:54:00.312Z,4.47
2023-02-25T05:56:29.468Z,5.43
2023-02-25T05:58:58.140Z,4.03
2023-02-25T06:01:27.638Z,5.90
2023-02-25T06:03:58.797Z,5.20
2023-02-25T06:06:29.090Z,5.53
2023-02-25T06:08:55.785Z,3.50
2023-02-25T06:11:23.940Z,4.83
2023-02-25T06:13:51.392Z,4.23
2023-02-25T06:16:18.455Z,5.80
2023-02-25T06:18:45.742Z,4.67
2023-02-25T06:21:13.180Z,7.73
2023-02-25T06:23:40.899Z,3.90
2023-02-25T06:26:08.510Z,4.50
2023-02-25T06:28:35.658Z,4.93
2023-02-25T06:31:02.384Z,7.30
2023-02-25T06:33:30.754Z,6.33
2023-02-25T06:35:57.853Z,6.50
2023-02-25T06:38:25.054Z,5.30
2023-02-25T06:40:51.664Z,7.67
2023-02-25T06:43:18.360Z,9.20
2023-02-25T06:45:44.841Z,7.90
2023-02-25T06:48:11.393Z,5.90
2023-02-25T06:50:41.582Z,5.17
2023-02-25T06:53:09.021Z,6.70
2023-02-25T06:55:38.361Z,7.97
2023-02-25T06:58:05.045Z,6.30
2023-02-25T07:00:31.729Z,6.10
2023-02-25T07:02:58.410Z,5.47
2023-02-25T07:05:25.131Z,7.00
2023-02-25T07:07:51.658Z,8.33
2023-02-25T07:10:18.307Z,5.00
2023-02-25T07:12:45.005Z,4.80
2023-02-25T07:15:11.469Z,4.50
2023-02-25T07:17:38.216Z,5.97
2023-02-25T07:20:05.200Z,7.80
2023-02-25T07:22:31.775Z,7.50
2023-02-25T07:24:58.727Z,9.07
2023-02-25T07:27:25.457Z,6.00
2023-02-25T07:29:51.974Z,6.37
2023-02-25T07:32:18.653Z,16.17
2023-02-25T07:34:45.558Z,5.80
2023-02-25T07:37:13.026Z,4.40
2023-02-25T07:39:39.676Z,6.33
2023-02-25T07:42:06.195Z,4.70
2023-02-25T07:44:35.991Z,5.80
2023-02-25T07:47:02.628Z,6.47
2023-02-25T07:49:29.158Z,4.03
2023-02-25T07:51:55.675Z,6.53
2023-02-25T07:54:23.072Z,5.63
2023-02-25T07:56:52.528Z,5.63
2023-02-25T07:59:19.327Z,6.40
2023-02-25T08:01:46.143Z,4.70
2023-02-25T08:04:12.837Z,4.23
2023-02-25T08:06:40.364Z,7.30
2023-02-25T08:09:07.536Z,4.40
2023-02-25T08:11:34.325Z,4.87
2023-02-25T08:14:01.649Z,4.67
2023-02-25T08:16:28.368Z,5.47
2023-02-25T08:18:54.859Z,4.17
2023-02-25T08:21:23.653Z,6.10
2023-02-25T08:23:51.267Z,4.70
2023-02-25T08:26:17.931Z,6.13
2023-02-25T08:28:45.069Z,5.03
2023-02-25T08:31:12.146Z,6.07
2023-02-25T08:33:40.043Z,5.80
2023-02-25T08:36:09.514Z,4.50
2023-02-25T08:38:37.381Z,4.90
2023-02-25T08:41:04.505Z,5.77
2023-02-25T08:43:32.068Z,5.13
2023-02-25T08:45:58.565Z,9.43
2023-02-25T08:48:25.244Z,5.27
2023-02-25T08:50:51.832Z,9.30
2023-02-25T08:53:19.217Z,4.33
2023-02-25T08:55:47.518Z,5.30
2023-02-25T08:58:14.338Z,5.03
2023-02-25T09:00:40.957Z,5.10
2023-02-25T09:03:07.860Z,5.83
2023-02-25T09:05:34.396Z,7.20
2023-02-25T09:08:01.111Z,4.80
2023-02-25T09:10:27.642Z,4.00
2023-02-25T09:12:54.634Z,5.83
2023-02-25T09:15:21.859Z,5.30
2023-02-25T09:17:48.379Z,4.43
2023-02-25T09:20:18.009Z,5.40
2023-02-25T09:22:44.765Z,4.37
2023-02-25T09:25:11.329Z,3.33
2023-02-25T09:27:38.073Z,3.80
2023-02-25T09:30:05.035Z,7.60
2023-02-25T09:32:31.924Z,4.63
2023-02-25T09:35:03.899Z,4.97
2023-02-25T09:37:30.711Z,4.13
2023-02-25T09:39:57.452Z,5.67
2023-02-25T09:42:26.995Z,5.90
2023-02-25T09:44:55.262Z,4.90
2023-02-25T09:47:48.421Z,3.20
2023-02-25T09:50:21.453Z,4.07
2023-02-25T09:52:54.209Z,3.37
2023-02-25T09:55:20.657Z,4.67
2023-02-25T09:57:56.477Z,4.23
2023-02-25T10:00:23.579Z,3.20
2023-02-25T10:03:02.642Z,3.23
2023-02-25T10:05:39.134Z,3.87
2023-02-25T10:08:19.169Z,4.27
2023-02-25T10:10:46.948Z,2.10
2023-02-25T10:13:21.059Z,3.57
2023-02-25T10:15:53.099Z,3.70
2023-02-25T10:18:33.072Z,2.80
2023-02-25T10:21:07.831Z,3.17
2023-02-25T10:23:36.015Z,3.93
2023-02-25T10:26:07.315Z,3.50
2023-02-25T10:28:34.461Z,5.73
2023-02-25T10:31:06.824Z,3.47
2023-02-25T10:33:36.938Z,2.57
2023-02-25T10:36:23.853Z,7.27
2023-02-25T10:38:51.897Z,12.43
2023-02-25T10:41:19.468Z,7.20
2023-02-25T10:43:46.158Z,5.40
2023-02-25T10:46:18.942Z,4.37
2023-02-25T10:48:52.332Z,3.83
2023-02-25T10:51:18.853Z,4.20
2023-02-25T10:53:57.551Z,4.53
2023-02-25T10:56:24.844Z,4.13
2023-02-25T10:59:02.475Z,2.93
2023-02-25T11:01:35.716Z,3.20
2023-02-25T11:04:04.421Z,3.47
2023-02-25T11:06:32.005Z,2.77
2023-02-25T11:08:59.921Z,2.93
2023-02-25T11:11:30.385Z,1.67
2023-02-25T11:14:02.970Z,0.80
2023-02-25T11:16:30.972Z,1.20
2023-02-25T11:18:59.906Z,1.53
2023-02-25T11:21:34.659Z,1.20
2023-02-25T11:24:02.723Z,1.30
2023-02-25T11:26:37.129Z,2.83
2023-02-25T11:29:10.002Z,2.00
2023-02-25T11:31:37.718Z,2.57
2023-02-25T11:34:06.736Z,3.60
2023-02-25T11:36:37.960Z,2.83
2023-02-25T11:39:04.593Z,3.07
2023-02-25T11:41:32.276Z,3.27
2023-02-25T11:44:10.546Z,2.40
2023-02-25T11:46:37.321Z,3.23
2023-02-25T11:49:10.537Z,2.63
2023-02-25T11:51:40.952Z,3.83
2023-02-25T11:54:26.052Z,2.57
2023-02-25T11:56:52.585Z,1.80
2023-02-25T11:59:30.455Z,2.43
2023-02-25T12:01:57.190Z,2.30
2023-02-25T12:04:36.101Z,3.10
2023-02-25T12:07:29.181Z,1.60
2023-02-25T12:10:04.540Z,1.73
2023-02-25T12:12:46.464Z,1.83
2023-02-25T12:15:39.688Z,1.93
2023-02-25T12:18:06.208Z,1.80
2023-02-25T12:20:50.280Z,1.80
2023-02-25T12:23:36.521Z,1.30
2023-02-25T12:26:10.004Z,1.60
2023-02-25T12:28:41.102Z,1.93
2023-02-25T12:31:16.871Z,1.57
2023-02-25T12:34:02.245Z,1.43
2023-02-25T12:36:47.299Z,1.10
2023-02-25T12:39:27.842Z,2.47
2023-02-25T12:41:57.435Z,2.07
2023-02-25T12:44:36.370Z,1.10
2023-02-25T12:47:14.559Z,2.40
2023-02-25T12:50:00.034Z,1.40
2023-02-25T12:52:46.390Z,1.20
2023-02-25T12:55:31.729Z,1.63
2023-02-25T12:58:04.233Z,1.60
2023-02-25T13:00:49.942Z,1.50
2023-02-25T13:03:21.159Z,1.50
2023-02-25T13:05:47.603Z,1.20
2023-02-25T13:08:39.095Z,1.10
2023-02-25T13:11:21.751Z,1.30
2023-02-25T13:13:56.241Z,1.80
2023-02-25T13:16:28.018Z,2.07
2023-02-25T13:19:13.488Z,2.00
2023-02-25T13:21:46.130Z,1.50
2023-02-25T13:24:31.562Z,2.47
2023-02-25T13:26:58.035Z,1.53
2023-02-25T13:29:43.479Z,1.20
2023-02-25T13:32:45.786Z,1.17
2023-02-25T13:35:19.140Z,1.73
2023-02-25T13:37:52.386Z,1.70
2023-02-25T13:40:22.094Z,1.63
2023-02-25T13:43:01.052Z,1.60
2023-02-25T13:45:31.080Z,1.33
2023-02-25T13:48:03.813Z,1.30
2023-02-25T13:51:06.341Z,2.90
2023-02-25T13:53:51.619Z,1.73
2023-02-25T13:56:38.572Z,2.10
2023-02-25T13:59:22.612Z,1.20
2023-02-25T14:01:56.183Z,1.20
2023-02-25T14:04:29.934Z,2.07
2023-02-25T14:07:05.733Z,1.53
2023-02-25T14:09:42.986Z,1.80
2023-02-25T14:12:29.529Z,1.27
2023-02-25T14:15:15.926Z,1.97
2023-02-25T14:17:52.258Z,1.60
2023-02-25T14:20:37.906Z,1.70
2023-02-25T14:23:19.846Z,1.77
2023-02-25T14:26:14.104Z,1.70
2023-02-25T14:28:59.487Z,3.50
2023-02-25T14:31:45.172Z,1.70
2023-02-25T14:34:29.087Z,1.73
2023-02-25T14:36:58.736Z,2.20
2023-02-25T14:39:44.500Z,1.63
2023-02-25T14:42:29.934Z,2.80
2023-02-25T14:45:08.836Z,3.50
2023-02-25T14:47:41.467Z,3.80
2023-02-25T14:50:26.261Z,1.90
2023-02-25T14:53:08.373Z,1.63
2023-02-25T14:55:44.188Z,3.53
2023-02-25T14:58:36.559Z,4.03
2023-02-25T15:01:09.381Z,2.00
2023-02-25T15:03:58.956Z,1.70
2023-02-25T15:06:31.581Z,2.50
2023-02-25T15:09:18.411Z,2.03
2023-02-25T15:11:54.273Z,2.10
2023-02-25T15:14:34.877Z,1.60
2023-02-25T15:17:20.495Z,2.47
2023-02-25T15:19:53.588Z,1.67
2023-02-25T15:22:22.052Z,1.90
2023-02-25T15:24:49.448Z,1.60
2023-02-25T15:27:34.909Z,1.50
2023-02-25T15:30:02.091Z,1.97
2023-02-25T15:32:31.023Z,1.47
2023-02-25T15:34:57.736Z,1.50
2023-02-25T15:37:56.397Z,1.93
2023-02-25T15:40:24.438Z,2.10
2023-02-25T15:42:53.861Z,1.20
2023-02-25T15:45:27.170Z,1.70
2023-02-25T15:48:02.954Z,1.40
2023-02-25T15:50:38.762Z,1.30
2023-02-25T15:53:07.788Z,1.93
2023-02-25T15:55:36.205Z,2.50
2023-02-25T15:58:22.671Z,1.63
2023-02-25T16:00:55.321Z,1.80
2023-02-25T16:03:26.280Z,2.13
2023-02-25T16:05:53.770Z,1.70
2023-02-25T16:08:28.453Z,1.77
2023-02-25T16:10:56.369Z,1.60
2023-02-25T16:13:26.808Z,1.83
2023-02-25T16:15:55.373Z,1.10
2023-02-25T16:18:27.837Z,2.07
2023-02-25T16:20:58.115Z,2.23
2023-02-25T16:23:24.800Z,1.53
2023-02-25T16:26:05.457Z,2.07
2023-02-25T16:28:43.706Z,1.73
2023-02-25T16:31:13.366Z,2.00
2023-02-25T16:33:51.472Z,1.20
2023-02-25T16:36:39.035Z,1.10
2023-02-25T16:39:07.604Z,0.93
2023-02-25T16:41:38.737Z,1.43
2023-02-25T16:44:06.549Z,0.87
2023-02-25T16:46:38.755Z,1.67
2023-02-25T16:49:08.763Z,1.23
2023-02-25T16:51:42.370Z,1.73
2023-02-25T16:54:12.038Z,1.27
2023-02-25T16:56:39.832Z,1.50
2023-02-25T16:59:15.499Z,1.17
2023-02-25T17:01:56.826Z,1.40
2023-02-25T17:04:25.300Z,1.30
2023-02-25T17:07:04.986Z,1.93
2023-02-25T17:09:31.527Z,2.20
2023-02-25T17:11:58.556Z,2.10
2023-02-25T17:14:25.560Z,1.30
2023-02-25T17:16:52.640Z,1.87
2023-02-25T17:19:20.527Z,1.93
2023-02-25T17:21:51.932Z,1.90
2023-02-25T17:24:19.521Z,1.90
2023-02-25T17:26:47.963Z,2.30
2023-02-25T17:29:16.594Z,1.53
2023-02-25T17:31:48.055Z,2.43
2023-02-25T17:34:19.775Z,1.57
2023-02-25T17:36:47.631Z,1.70
2023-02-25T17:39:16.015Z,1.90
2023-02-25T17:41:43.628Z,1.97
2023-02-25T17:44:11.401Z,1.83
2023-02-25T17:46:39.315Z,1.83
2023-02-25T17:49:17.771Z,1.97
2023-02-25T17:51:44.360Z,1.80
2023-02-25T17:54:15.512Z,1.63
2023-02-25T17:56:42.230Z,1.37
2023-02-25T17:59:11.852Z,1.60
2023-02-25T18:01:49.195Z,2.50
2023-02-25T18:04:24.703Z,2.00
2023-02-25T18:06:52.271Z,1.97
2023-02-25T18:09:30.920Z,3.30
2023-02-25T18:11:58.525Z,2.17
2023-02-25T18:14:38.489Z,2.77
2023-02-25T18:17:12.768Z,1.50
2023-02-25T18:19:41.223Z,3.33
2023-02-25T18:22:22.455Z,2.10
2023-02-25T18:24:54.584Z,2.17
2023-02-25T18:27:21.500Z,1.30
2023-02-25T18:29:48.449Z,1.97
2023-02-25T18:32:16.058Z,2.45
2023-02-25T18:34:42.755Z,1.70
2023-02-25T18:37:14.159Z,2.83
2023-02-25T18:39:40.774Z,3.92
2023-02-25T18:42:11.213Z,2.15
2023-02-25T18:44:39.068Z,1.77
2023-02-25T18:47:05.642Z,2.27
2023-02-25T18:49:32.401Z,2.22
2023-02-25T18:51:58.945Z,1.83
2023-02-25T18:54:25.567Z,2.53
2023-02-25T18:56:52.517Z,3.33
2023-02-25T18:59:19.194Z,2.40
2023-02-25T19:01:46.065Z,2.33
2023-02-25T19:04:15.585Z,2.60
2023-02-25T19:06:42.508Z,2.67
2023-02-25T19:09:09.100Z,2.83
2023-02-25T19:11:36.763Z,2.38
2023-02-25T19:14:04.373Z,2.27
2023-02-25T19:16:31.404Z,2.70
2023-02-25T19:18:58.255Z,2.30
2023-02-25T19:21:24.924Z,2.30
2023-02-25T19:23:52.187Z,2.15
2023-02-25T19:26:18.939Z,2.33
2023-02-25T19:28:45.575Z,1.90
2023-02-25T19:31:12.514Z,3.10
2023-02-25T19:33:39.236Z,3.30
2023-02-25T19:36:06.913Z,2.40
2023-02-25T19:38:33.932Z,3.35
2023-02-25T19:41:01.651Z,2.65
2023-02-25T19:43:28.204Z,3.03
2023-02-25T19:45:54.821Z,3.38
2023-02-25T19:48:21.509Z,3.30
2023-02-25T19:50:48.132Z,3.08
2023-02-25T19:53:14.975Z,2.60
2023-02-25T19:55:42.961Z,1.80
2023-02-25T19:58:09.757Z,2.58
2023-02-25T20:00:36.497Z,3.92
2023-02-25T20:03:03.136Z,2.80
2023-02-25T20:05:30.153Z,3.08
2023-02-25T20:07:56.796Z,2.70
2023-02-25T20:10:23.380Z,2.92
2023-02-25T20:12:49.972Z,3.33
2023-02-25T20:15:17.042Z,3.30
2023-02-25T20:17:44.516Z,3.30
2023-02-25T20:20:11.678Z,2.90
2023-02-25T20:22:41.170Z,3.00
2023-02-25T20:25:08.890Z,3.45
2023-02-25T20:27:37.166Z,3.80
2023-02-25T20:30:04.480Z,3.42
2023-02-25T20:32:31.295Z,3.00
2023-02-25T20:34:58.033Z,2.72
2023-02-25T20:37:29.417Z,2.95
2023-02-25T20:39:57.340Z,3.22
2023-02-25T20:42:30.859Z,3.20
2023-02-25T20:44:58.728Z,3.08
2023-02-25T20:47:27.234Z,4.28
2023-02-25T20:49:54.510Z,3.13
2023-02-25T20:52:21.707Z,2.97
2023-02-25T20:54:49.694Z,2.97
2023-02-25T20:57:18.624Z,3.25
2023-02-25T20:59:45.422Z,3.13
2023-02-25T21:02:12.381Z,3.53
2023-02-25T21:04:38.988Z,2.67
2023-02-25T21:07:07.034Z,2.97
2023-02-25T21:09:34.126Z,3.10
2023-02-25T21:12:00.974Z,3.25
2023-02-25T21:14:27.592Z,5.38
2023-02-25T21:16:54.683Z,3.25
2023-02-25T21:19:22.902Z,2.92
2023-02-25T21:21:50.328Z,2.25
2023-02-25T21:24:17.359Z,2.70
2023-02-25T21:26:44.023Z,3.08
2023-02-25T21:29:11.562Z,3.65
2023-02-25T21:31:38.712Z,3.25
2023-02-25T21:34:05.779Z,2.85
2023-02-25T21:36:32.541Z,3.28
2023-02-25T21:38:59.144Z,3.42
2023-02-25T21:41:25.771Z,3.17
2023-02-25T21:43:52.877Z,3.10
2023-02-25T21:46:19.955Z,3.25
2023-02-25T21:48:50.877Z,3.55
2023-02-25T21:51:19.008Z,3.60
2023-02-25T21:53:46.165Z,7.68
2023-02-25T21:56:15.851Z,2.45
2023-02-25T21:58:43.318Z,4.40
2023-02-25T22:01:11.139Z,3.22
2023-02-25T22:03:37.655Z,2.75
2023-02-25T22:06:04.378Z,2.90
2023-02-25T22:08:31.002Z,3.38
2023-02-25T22:10:57.620Z,3.95
2023-02-25T22:13:25.828Z,3.20
2023-02-25T22:15:52.446Z,3.45
2023-02-25T22:18:19.019Z,2.78
2023-02-25T22:20:45.723Z,4.00
2023-02-25T22:23:12.310Z,3.10
2023-02-25T22:25:38.805Z,3.10
2023-02-25T22:28:05.503Z,2.90
2023-02-25T22:30:32.140Z,3.38
2023-02-25T22:32:58.990Z,2.63
2023-02-25T22:35:25.701Z,1.85
2023-02-25T22:37:52.511Z,2.58
2023-02-25T22:40:19.149Z,4.18
2023-02-25T22:42:45.761Z,3.20
2023-02-25T22:45:12.488Z,2.72
2023-02-25T22:47:39.125Z,4.10
2023-02-25T22:50:06.024Z,3.58
2023-02-25T22:52:32.531Z,2.20
2023-02-25T22:54:59.047Z,3.55
2023-02-25T22:57:25.557Z,2.50
2023-02-25T22:59:52.152Z,2.53
2023-02-25T23:02:18.637Z,2.72
2023-02-25T23:04:45.283Z,2.20
2023-02-25T23:07:11.780Z,1.35
2023-02-25T23:09:38.279Z,2.80
2023-02-25T23:12:05.703Z,3.45
2023-02-25T23:14:34.485Z,2.67
2023-02-25T23:17:00.971Z,2.85
2023-02-25T23:19:28.118Z,2.10
2023-02-25T23:21:54.646Z,2.45
2023-02-25T23:24:21.866Z,3.40
2023-02-25T23:26:50.648Z,2.63
2023-02-25T23:29:17.510Z,3.40
2023-02-25T23:31:47.254Z,3.00
2023-02-25T23:34:17.515Z,3.40
2023-02-25T23:36:44.306Z,2.70
2023-02-25T23:39:12.488Z,3.47
2023-02-25T23:41:39.311Z,2.90
2023-02-25T23:44:09.248Z,2.10
2023-02-25T23:46:36.094Z,3.63
2023-02-25T23:49:04.395Z,2.35
2023-02-25T23:51:31.214Z,3.17
2023-02-25T23:53:59.275Z,4.40
2023-02-25T23:56:29.708Z,3.30
2023-02-25T23:58:56.954Z,3.50
